Portada
METAR-TAF:

METAR-TAF

Aeroports :

Ciutat del Cap, Sud-àfrica

latitud: 33-59S, longitud: 018-36E, altitud: 42 m

Observació

L'informe es va fer fa 53 minuts, a les 13:00 UTC
Vent 13 kt del Sud/Sud-Oest
Temperatura 29°C
Humitat 43%
Pressió 1014 hPa
Visibilitat 10 km o més
sense núvols per sota de 1500 mi sense presència de cumulonimbus.

METAR: FACT 181300Z 20013KT CAVOK 29/15 Q1014 NOSIG

Hora: 15:53 (13:53 UTC)

Pronòstic

L'informe es va fer fa 3 hores i 53 minuts, a les 10:00 UTC
Pronòstic vàlid del 18 a les 12 UTC al 19 a les 18 UTC
Vent 18 kt del Sud
Visibilitat 10 km o més
sense núvols per sota de 1500 mi sense presència de cumulonimbus.
Evolucionant progressivament
l' 18 a les 22 UTC al 18 a les 24 UTC
Vent 6 kt del Sud-Oest
Evolucionant progressivament
l' 19 a les 11 UTC al 19 a les 13 UTC
Vent 12 kt del Sud-Oest

TAF: FACT 181000Z 1812/1918 19018KT CAVOK TX30/1912Z TN17/1904Z BECMG 1822/1824 22006KT BECMG 1911/1913 22012KT

Observacions i pronòstics meteorològics de més de 4000 aeroports (METAR i TAF).

Les estacions disponibles són els punts grocs i vermells al mapa.

Posi el ratolí al punt desitjat per veure el nom de l'estació.

Feu clic per veure les observacions i els pronòstics meteorològics.

Per canviar el mapa: feu clic els botons verds amb una creu de color negre per apropar; al botó verd amb un guió per allunyar la imatge; o en les fletxes verdes per a mapes adjacents.


METAR-TAF: